SKW5498 KDEN-KBIL
Flight info
| Callsign | SKW5498 |
|---|---|
| Flight time | 1h 6m |
| Altitude | 40000 |
| Route | XXWNG1 XXWNG BGHRN BGHRN3 |
| Aircraft | CRJ7/M-SDFGIRWY/S |
Departure
| Time | 2026-04-30 21:44 |
|---|---|
| Airport | Denver International Airport (KDEN) |
Arrival
| Time | 2026-04-30 22:50 |
|---|---|
| Airport | Billings Logan International Airport (KBIL) |
| Time | Latitude | Longitude | Altitude | Speed | Heading |
|---|---|---|---|---|---|
| 2026-04-30 21:17 | 39.85933 | -104.66912 | 5385 ft | 0 kts | 181° |
| 2026-04-30 21:31 | 39.85988 | -104.66913 | 5382 ft | 4 kts | 173° |
| 2026-04-30 21:31 | 39.86020 | -104.66935 | 5385 ft | 4 kts | 51° |
| 2026-04-30 21:32 | 39.86015 | -104.66940 | 5385 ft | 0 kts | 36° |
| 2026-04-30 21:38 | 39.86021 | -104.66935 | 5385 ft | 4 kts | 36° |
| 2026-04-30 21:38 | 39.86051 | -104.66954 | 5385 ft | 9 kts | 311° |
| 2026-04-30 21:38 | 39.86063 | -104.67065 | 5385 ft | 17 kts | 265° |
| 2026-04-30 21:38 | 39.86066 | -104.67233 | 5385 ft | 19 kts | 269° |
| 2026-04-30 21:39 | 39.86066 | -104.67419 | 5385 ft | 22 kts | 270° |
| 2026-04-30 21:39 | 39.86068 | -104.67627 | 5385 ft | 24 kts | 268° |
| 2026-04-30 21:39 | 39.86070 | -104.67847 | 5385 ft | 25 kts | 269° |
| 2026-04-30 21:39 | 39.86070 | -104.68075 | 5385 ft | 22 kts | 268° |
| 2026-04-30 21:40 | 39.86032 | -104.68274 | 5376 ft | 26 kts | 274° |
| 2026-04-30 21:40 | 39.86001 | -104.68401 | 5363 ft | 13 kts | 180° |
| 2026-04-30 21:40 | 39.85895 | -104.68398 | 5367 ft | 17 kts | 180° |
| 2026-04-30 21:40 | 39.85744 | -104.68400 | 5369 ft | 27 kts | 180° |
| 2026-04-30 21:41 | 39.85558 | -104.68402 | 5371 ft | 26 kts | 181° |
| 2026-04-30 21:41 | 39.85379 | -104.68404 | 5373 ft | 26 kts | 180° |
| 2026-04-30 21:41 | 39.85225 | -104.68432 | 5375 ft | 19 kts | 227° |
| 2026-04-30 21:41 | 39.85205 | -104.68631 | 5365 ft | 26 kts | 268° |
| 2026-04-30 21:42 | 39.85199 | -104.68885 | 5355 ft | 29 kts | 270° |
| 2026-04-30 21:42 | 39.85197 | -104.69144 | 5348 ft | 24 kts | 270° |
| 2026-04-30 21:42 | 39.85203 | -104.69378 | 5337 ft | 29 kts | 272° |
| 2026-04-30 21:42 | 39.85202 | -104.69609 | 5332 ft | 15 kts | 269° |
| 2026-04-30 21:43 | 39.85220 | -104.69660 | 5335 ft | 5 kts | 353° |
| 2026-04-30 21:43 | 39.85243 | -104.69659 | 5334 ft | 10 kts | 0° |
| 2026-04-30 21:43 | 39.85476 | -104.69655 | 5338 ft | 67 kts | 1° |
| 2026-04-30 21:43 | 39.86171 | -104.69650 | 5333 ft | 131 kts | 0° |
| 2026-04-30 21:44 | 39.87242 | -104.69638 | 5486 ft | 165 kts | 0° |
| 2026-04-30 21:44 | 39.88352 | -104.69615 | 6393 ft | 154 kts | 5° |
| 2026-04-30 21:44 | 39.89391 | -104.69572 | 6999 ft | 160 kts | 7° |
| 2026-04-30 21:44 | 39.90516 | -104.69524 | 7569 ft | 167 kts | 5° |
| 2026-04-30 21:45 | 39.91781 | -104.69475 | 7824 ft | 204 kts | 3° |
| 2026-04-30 21:45 | 39.93330 | -104.69445 | 8184 ft | 232 kts | 4° |
| 2026-04-30 21:45 | 39.95039 | -104.69421 | 8477 ft | 258 kts | 2° |
| 2026-04-30 21:45 | 39.96899 | -104.69400 | 8910 ft | 275 kts | 2° |
| 2026-04-30 21:46 | 39.98816 | -104.69375 | 9610 ft | 280 kts | 2° |
| 2026-04-30 21:46 | 40.00766 | -104.69347 | 10372 ft | 282 kts | 1° |
| 2026-04-30 21:46 | 40.02741 | -104.69308 | 11001 ft | 286 kts | 1° |
| 2026-04-30 21:46 | 40.04741 | -104.69225 | 11648 ft | 290 kts | 4° |
| 2026-04-30 21:47 | 40.06798 | -104.68948 | 11936 ft | 308 kts | 7° |
| 2026-04-30 21:47 | 40.08950 | -104.68559 | 12096 ft | 326 kts | 7° |
| 2026-04-30 21:47 | 40.11253 | -104.68136 | 12403 ft | 341 kts | 7° |
| 2026-04-30 21:47 | 40.13618 | -104.67704 | 12991 ft | 346 kts | 7° |
| 2026-04-30 21:48 | 40.15912 | -104.67364 | 13569 ft | 349 kts | 0° |
| 2026-04-30 21:48 | 40.18323 | -104.67720 | 14141 ft | 351 kts | 347° |
| 2026-04-30 21:48 | 40.20705 | -104.68466 | 14764 ft | 351 kts | 344° |
| 2026-04-30 21:48 | 40.23080 | -104.69270 | 15345 ft | 354 kts | 344° |
| 2026-04-30 21:49 | 40.25464 | -104.70047 | 15913 ft | 356 kts | 345° |
| 2026-04-30 21:49 | 40.27797 | -104.70728 | 16450 ft | 358 kts | 346° |
| 2026-04-30 21:49 | 40.30239 | -104.71420 | 16987 ft | 360 kts | 347° |
| 2026-04-30 21:49 | 40.32700 | -104.72092 | 17509 ft | 362 kts | 346° |
| 2026-04-30 21:50 | 40.35170 | -104.72789 | 18082 ft | 364 kts | 346° |
| 2026-04-30 21:50 | 40.37653 | -104.73489 | 18638 ft | 367 kts | 346° |
| 2026-04-30 21:50 | 40.40157 | -104.74193 | 19119 ft | 369 kts | 346° |
| 2026-04-30 21:50 | 40.42526 | -104.74863 | 19568 ft | 372 kts | 346° |
| 2026-04-30 21:51 | 40.45068 | -104.75582 | 20010 ft | 375 kts | 346° |
| 2026-04-30 21:51 | 40.47660 | -104.76318 | 20447 ft | 378 kts | 346° |
| 2026-04-30 21:51 | 40.50236 | -104.77048 | 20872 ft | 381 kts | 345° |
| 2026-04-30 21:51 | 40.52835 | -104.77782 | 21290 ft | 383 kts | 345° |
| 2026-04-30 21:52 | 40.55454 | -104.78527 | 21695 ft | 386 kts | 345° |
| 2026-04-30 21:52 | 40.58092 | -104.79278 | 22093 ft | 389 kts | 345° |
| 2026-04-30 21:52 | 40.60746 | -104.80030 | 22487 ft | 392 kts | 345° |
| 2026-04-30 21:52 | 40.63424 | -104.80793 | 22882 ft | 394 kts | 344° |
| 2026-04-30 21:53 | 40.66113 | -104.81560 | 23256 ft | 397 kts | 344° |
| 2026-04-30 21:53 | 40.68814 | -104.82326 | 23607 ft | 399 kts | 344° |
| 2026-04-30 21:53 | 40.71397 | -104.83063 | 23913 ft | 401 kts | 344° |
| 2026-04-30 21:53 | 40.74131 | -104.83847 | 24219 ft | 403 kts | 344° |
| 2026-04-30 21:54 | 40.76873 | -104.84634 | 24514 ft | 404 kts | 343° |
| 2026-04-30 21:54 | 40.79505 | -104.85751 | 24797 ft | 400 kts | 332° |
| 2026-04-30 21:54 | 40.81981 | -104.87409 | 25130 ft | 398 kts | 326° |
| 2026-04-30 21:54 | 40.84364 | -104.89267 | 25442 ft | 398 kts | 325° |
| 2026-04-30 21:55 | 40.86749 | -104.91155 | 25733 ft | 399 kts | 325° |
| 2026-04-30 21:55 | 40.89138 | -104.93036 | 25959 ft | 402 kts | 326° |
| 2026-04-30 21:55 | 40.91412 | -104.94759 | 26121 ft | 406 kts | 327° |
| 2026-04-30 21:55 | 40.93878 | -104.96597 | 26386 ft | 407 kts | 326° |
| 2026-04-30 21:56 | 40.96249 | -104.98378 | 26649 ft | 409 kts | 326° |
| 2026-04-30 21:56 | 40.98725 | -105.00236 | 26877 ft | 410 kts | 326° |
| 2026-04-30 21:56 | 41.01214 | -105.02105 | 27149 ft | 411 kts | 326° |
| 2026-04-30 21:56 | 41.03703 | -105.03972 | 27400 ft | 412 kts | 327° |
| 2026-04-30 21:57 | 41.06196 | -105.05850 | 27631 ft | 413 kts | 326° |
| 2026-04-30 21:57 | 41.08698 | -105.07733 | 27857 ft | 414 kts | 326° |
| 2026-04-30 21:57 | 41.11205 | -105.09620 | 28071 ft | 415 kts | 327° |
| 2026-04-30 21:57 | 41.13720 | -105.11519 | 28287 ft | 417 kts | 326° |
| 2026-04-30 21:58 | 41.16245 | -105.13424 | 28490 ft | 418 kts | 327° |
| 2026-04-30 21:58 | 41.18776 | -105.15336 | 28687 ft | 419 kts | 326° |
| 2026-04-30 21:58 | 41.21307 | -105.17254 | 28887 ft | 420 kts | 327° |
| 2026-04-30 21:58 | 41.23731 | -105.19080 | 29061 ft | 422 kts | 327° |
| 2026-04-30 21:59 | 41.26285 | -105.21018 | 29232 ft | 423 kts | 327° |
| 2026-04-30 21:59 | 41.28846 | -105.22959 | 29412 ft | 424 kts | 327° |
| 2026-04-30 21:59 | 41.31378 | -105.24882 | 29578 ft | 425 kts | 327° |
| 2026-04-30 22:00 | 41.36533 | -105.28800 | 29883 ft | 427 kts | 327° |
| 2026-04-30 22:00 | 41.41514 | -105.32589 | 30463 ft | 422 kts | 328° |
| 2026-04-30 22:00 | 41.44041 | -105.34511 | 30929 ft | 414 kts | 327° |
| 2026-04-30 22:01 | 41.46543 | -105.36406 | 31177 ft | 413 kts | 328° |
| 2026-04-30 22:01 | 41.48984 | -105.38071 | 31341 ft | 414 kts | 331° |
| 2026-04-30 22:01 | 41.51606 | -105.39667 | 31547 ft | 414 kts | 333° |
| 2026-04-30 22:01 | 41.54244 | -105.41215 | 31737 ft | 414 kts | 333° |
| 2026-04-30 22:02 | 41.56879 | -105.42770 | 31941 ft | 413 kts | 332° |
| 2026-04-30 22:02 | 41.59490 | -105.44371 | 32137 ft | 413 kts | 332° |
| 2026-04-30 22:02 | 41.62099 | -105.45979 | 32324 ft | 412 kts | 332° |
| 2026-04-30 22:02 | 41.64699 | -105.47585 | 32506 ft | 412 kts | 332° |
| 2026-04-30 22:03 | 41.67298 | -105.49196 | 32698 ft | 411 kts | 331° |
| 2026-04-30 22:03 | 41.69889 | -105.50805 | 32884 ft | 411 kts | 331° |
| 2026-04-30 22:03 | 41.72482 | -105.52412 | 33077 ft | 410 kts | 331° |
| 2026-04-30 22:03 | 41.74957 | -105.53952 | 33265 ft | 410 kts | 331° |
| 2026-04-30 22:04 | 41.77544 | -105.55559 | 33450 ft | 409 kts | 331° |
| 2026-04-30 22:04 | 41.80132 | -105.57169 | 33629 ft | 409 kts | 330° |
| 2026-04-30 22:04 | 41.85289 | -105.60382 | 33980 ft | 408 kts | 330° |
| 2026-04-30 22:05 | 41.87861 | -105.61990 | 34153 ft | 408 kts | 330° |
| 2026-04-30 22:05 | 41.90436 | -105.63595 | 34279 ft | 408 kts | 330° |
| 2026-04-30 22:05 | 41.92808 | -105.65081 | 34364 ft | 408 kts | 330° |
| 2026-04-30 22:05 | 41.95381 | -105.66692 | 34507 ft | 408 kts | 330° |
| 2026-04-30 22:06 | 41.97954 | -105.68301 | 34644 ft | 408 kts | 330° |
| 2026-04-30 22:06 | 42.03001 | -105.71468 | 34879 ft | 408 kts | 330° |
| 2026-04-30 22:06 | 42.05576 | -105.73083 | 35012 ft | 408 kts | 330° |
| 2026-04-30 22:07 | 42.08145 | -105.74701 | 35142 ft | 407 kts | 330° |
| 2026-04-30 22:07 | 42.10715 | -105.76315 | 35242 ft | 408 kts | 330° |
| 2026-04-30 22:07 | 42.13283 | -105.77934 | 35386 ft | 408 kts | 330° |
| 2026-04-30 22:07 | 42.15848 | -105.79552 | 35517 ft | 407 kts | 330° |
| 2026-04-30 22:08 | 42.20987 | -105.82793 | 35741 ft | 407 kts | 330° |
| 2026-04-30 22:08 | 42.23555 | -105.84414 | 35865 ft | 407 kts | 330° |
| 2026-04-30 22:08 | 42.26122 | -105.86039 | 35966 ft | 407 kts | 330° |
| 2026-04-30 22:09 | 42.28570 | -105.87588 | 36090 ft | 407 kts | 330° |
| 2026-04-30 22:09 | 42.31140 | -105.89215 | 36208 ft | 407 kts | 330° |
| 2026-04-30 22:09 | 42.33703 | -105.90846 | 36313 ft | 408 kts | 330° |
| 2026-04-30 22:09 | 42.36271 | -105.92477 | 36433 ft | 408 kts | 330° |
| 2026-04-30 22:10 | 42.38844 | -105.94106 | 36540 ft | 408 kts | 330° |
| 2026-04-30 22:10 | 42.41412 | -105.95742 | 36640 ft | 408 kts | 330° |
| 2026-04-30 22:10 | 42.43950 | -105.97356 | 36759 ft | 408 kts | 330° |
| 2026-04-30 22:10 | 42.46554 | -105.99013 | 36856 ft | 408 kts | 330° |
| 2026-04-30 22:11 | 42.51483 | -106.02160 | 37017 ft | 409 kts | 330° |
| 2026-04-30 22:11 | 42.53953 | -106.03745 | 37140 ft | 409 kts | 330° |
| 2026-04-30 22:12 | 42.59082 | -106.07084 | 37325 ft | 409 kts | 330° |
| 2026-04-30 22:12 | 42.64231 | -106.10388 | 37516 ft | 409 kts | 331° |
| 2026-04-30 22:13 | 42.69387 | -106.13684 | 37726 ft | 409 kts | 330° |
| 2026-04-30 22:13 | 42.74529 | -106.17002 | 37900 ft | 409 kts | 331° |
| 2026-04-30 22:14 | 42.79549 | -106.20231 | 38053 ft | 409 kts | 331° |
| 2026-04-30 22:14 | 42.84698 | -106.23556 | 38222 ft | 409 kts | 330° |
| 2026-04-30 22:15 | 42.89845 | -106.26891 | 38353 ft | 410 kts | 331° |
| 2026-04-30 22:15 | 42.94970 | -106.30205 | 38496 ft | 411 kts | 331° |
| 2026-04-30 22:16 | 43.00128 | -106.33554 | 38647 ft | 411 kts | 331° |
| 2026-04-30 22:17 | 43.10187 | -106.40105 | 38842 ft | 412 kts | 331° |
| 2026-04-30 22:17 | 43.17954 | -106.45174 | 39011 ft | 412 kts | 331° |
| 2026-04-30 22:18 | 43.25711 | -106.50262 | 39203 ft | 411 kts | 332° |
| 2026-04-30 22:19 | 43.30759 | -106.53567 | 39321 ft | 411 kts | 332° |
| 2026-04-30 22:19 | 43.33340 | -106.55263 | 39362 ft | 411 kts | 332° |
| 2026-04-30 22:20 | 43.41042 | -106.60340 | 39539 ft | 410 kts | 332° |
| 2026-04-30 22:20 | 43.46183 | -106.63734 | 39646 ft | 410 kts | 332° |
| 2026-04-30 22:20 | 43.48756 | -106.65431 | 39711 ft | 409 kts | 332° |
| 2026-04-30 22:21 | 43.53893 | -106.68833 | 39779 ft | 410 kts | 332° |
| 2026-04-30 22:21 | 43.58756 | -106.72061 | 39810 ft | 410 kts | 332° |
| 2026-04-30 22:22 | 43.63886 | -106.75468 | 39976 ft | 408 kts | 332° |
| 2026-04-30 22:22 | 43.68983 | -106.78860 | 40119 ft | 406 kts | 332° |
| 2026-04-30 22:23 | 43.74081 | -106.82262 | 40165 ft | 407 kts | 332° |
| 2026-04-30 22:23 | 43.79193 | -106.85684 | 40172 ft | 409 kts | 332° |
| 2026-04-30 22:24 | 43.84176 | -106.89013 | 40168 ft | 410 kts | 332° |
| 2026-04-30 22:24 | 43.89353 | -106.92487 | 40187 ft | 411 kts | 332° |
| 2026-04-30 22:25 | 43.94483 | -106.95938 | 40191 ft | 413 kts | 332° |
| 2026-04-30 22:25 | 43.99666 | -106.99427 | 40196 ft | 415 kts | 332° |
| 2026-04-30 22:26 | 44.07376 | -107.04631 | 40196 ft | 418 kts | 332° |
| 2026-04-30 22:27 | 44.12392 | -107.08028 | 39899 ft | 419 kts | 332° |
| 2026-04-30 22:27 | 44.15002 | -107.09794 | 39427 ft | 415 kts | 332° |
| 2026-04-30 22:27 | 44.20138 | -107.13279 | 38420 ft | 406 kts | 332° |
| 2026-04-30 22:28 | 44.25176 | -107.16704 | 37310 ft | 398 kts | 332° |
| 2026-04-30 22:28 | 44.27619 | -107.18367 | 36801 ft | 394 kts | 332° |
| 2026-04-30 22:29 | 44.34801 | -107.23269 | 35339 ft | 386 kts | 332° |
| 2026-04-30 22:29 | 44.37222 | -107.24923 | 34902 ft | 389 kts | 332° |
| 2026-04-30 22:30 | 44.46300 | -107.31146 | 33166 ft | 403 kts | 333° |
| 2026-04-30 22:31 | 44.53913 | -107.36374 | 31694 ft | 410 kts | 333° |
| 2026-04-30 22:32 | 44.61316 | -107.41473 | 30202 ft | 415 kts | 333° |
| 2026-04-30 22:32 | 44.66517 | -107.45081 | 29012 ft | 418 kts | 333° |
| 2026-04-30 22:33 | 44.74384 | -107.50514 | 27316 ft | 422 kts | 334° |
| 2026-04-30 22:33 | 44.79664 | -107.54183 | 26247 ft | 424 kts | 334° |
| 2026-04-30 22:34 | 44.87485 | -107.59631 | 24723 ft | 426 kts | 334° |
| 2026-04-30 22:35 | 44.92638 | -107.63218 | 23636 ft | 400 kts | 334° |
| 2026-04-30 22:36 | 45.02073 | -107.69831 | 21407 ft | 362 kts | 334° |
| 2026-04-30 22:36 | 45.04310 | -107.71399 | 20941 ft | 356 kts | 334° |
| 2026-04-30 22:37 | 45.10611 | -107.75821 | 19645 ft | 348 kts | 334° |
| 2026-04-30 22:37 | 45.12729 | -107.77313 | 19212 ft | 345 kts | 334° |
| 2026-04-30 22:37 | 45.17004 | -107.80324 | 18336 ft | 340 kts | 334° |
| 2026-04-30 22:38 | 45.21195 | -107.83282 | 17382 ft | 332 kts | 334° |
| 2026-04-30 22:38 | 45.25156 | -107.86449 | 16499 ft | 324 kts | 324° |
| 2026-04-30 22:39 | 45.26912 | -107.88447 | 16070 ft | 323 kts | 320° |
| 2026-04-30 22:39 | 45.31891 | -107.94527 | 14872 ft | 317 kts | 320° |
| 2026-04-30 22:40 | 45.36931 | -108.00461 | 13662 ft | 310 kts | 321° |
| 2026-04-30 22:41 | 45.41848 | -108.06226 | 12449 ft | 303 kts | 321° |
| 2026-04-30 22:41 | 45.45071 | -108.10005 | 11686 ft | 297 kts | 320° |
| 2026-04-30 22:42 | 45.51173 | -108.17110 | 10338 ft | 284 kts | 321° |
| 2026-04-30 22:43 | 45.54313 | -108.20383 | 9628 ft | 277 kts | 338° |
| 2026-04-30 22:43 | 45.57909 | -108.21862 | 8926 ft | 273 kts | 347° |
| 2026-04-30 22:44 | 45.61585 | -108.23048 | 8202 ft | 269 kts | 347° |
| 2026-04-30 22:45 | 45.68175 | -108.25431 | 6750 ft | 249 kts | 343° |
| 2026-04-30 22:45 | 45.70955 | -108.28275 | 6196 ft | 243 kts | 317° |
| 2026-04-30 22:46 | 45.73300 | -108.31487 | 6059 ft | 224 kts | 317° |
| 2026-04-30 22:47 | 45.76167 | -108.38433 | 5567 ft | 206 kts | 295° |
| 2026-04-30 22:47 | 45.77418 | -108.42026 | 5100 ft | 186 kts | 299° |
| 2026-04-30 22:48 | 45.78359 | -108.45044 | 4698 ft | 141 kts | 292° |
| 2026-04-30 22:49 | 45.79397 | -108.48766 | 3996 ft | 139 kts | 294° |
| 2026-04-30 22:49 | 45.80456 | -108.52551 | 3553 ft | 118 kts | 292° |
| 2026-04-30 22:50 | 45.80668 | -108.54001 | 3559 ft | 18 kts | 113° |
| 2026-04-30 22:51 | 45.80592 | -108.53726 | 3557 ft | 14 kts | 112° |
| 2026-04-30 22:51 | 45.80527 | -108.53551 | 3556 ft | 10 kts | 163° |
| 2026-04-30 22:52 | 45.80472 | -108.53589 | 3553 ft | 8 kts | 230° |
| 2026-04-30 22:52 | 45.80469 | -108.53594 | 3554 ft | 0 kts | 230° |
| 2026-04-30 22:53 | 45.80447 | -108.53519 | 3555 ft | 0 kts | 216° |